Time;durP1;ratioP1;P1;durP2;ratioP2;P2;SDS_P1;SDS_P2;PMS_P1;PMS_P2;Temp;Humidity;BMP_temperature;BMP_pressure;BME280_temperature;BME280_humidity;BME280_pressure;Samples;Min_cycle;Max_cycle;Signal;HPM_P1;HPM_P2
2022/04/30 00:01:12;;;;;;;6.43;3.25;;;;;;;20.38;44.29;101689.31;4995833;28;20505;-71
2022/04/30 00:03:39;;;;;;;5.43;3.58;;;;;;;20.38;44.46;101697.38;4995788;28;20057;-71
2022/04/30 00:06:07;;;;;;;5.35;3.40;;;;;;;20.37;44.17;101692.94;4995470;28;20482;-71
2022/04/30 00:08:34;;;;;;;4.65;3.13;;;;;;;20.38;44.42;101693.81;4994997;28;20505;-71
2022/04/30 00:11:02;;;;;;;4.63;3.15;;;;;;;20.38;44.29;101699.22;4995319;28;20050;-71
2022/04/30 00:13:30;;;;;;;7.15;3.63;;;;;;;20.36;44.33;101687.69;4995388;28;20050;-71
2022/04/30 00:15:59;;;;;;;6.03;3.33;;;;;;;20.37;44.36;101701.00;4994798;28;20487;-71
2022/04/30 00:18:27;;;;;;;4.18;3.22;;;;;;;20.36;44.32;101685.84;4994564;28;20049;-71
2022/04/30 00:20:58;;;;;;;4.30;3.63;;;;;;;20.35;44.26;101684.16;4993463;28;20054;-71
2022/04/30 00:23:27;;;;;;;4.40;3.05;;;;;;;20.36;44.20;101687.69;4994928;28;20514;-71
2022/04/30 00:25:55;;;;;;;4.05;3.17;;;;;;;20.34;44.09;101682.44;4994543;28;20050;-71
2022/04/30 00:28:25;;;;;;;3.60;2.78;;;;;;;20.35;44.20;101675.22;4994472;28;20042;-71
2022/04/30 00:30:53;;;;;;;4.07;3.08;;;;;;;20.35;44.33;101677.91;4995033;28;20073;-72
2022/04/30 00:33:20;;;;;;;6.68;3.30;;;;;;;20.35;44.27;101672.53;4994625;28;20057;-71
2022/04/30 00:35:48;;;;;;;4.63;3.30;;;;;;;20.34;44.18;101670.84;4994584;28;20045;-71
2022/04/30 00:38:15;;;;;;;4.35;3.28;;;;;;;20.34;44.29;101676.22;4993720;28;20031;-71
2022/04/30 00:40:43;;;;;;;5.15;2.92;;;;;;;20.34;44.18;101670.84;4993252;28;20062;-71
2022/04/30 00:43:11;;;;;;;5.57;3.28;;;;;;;20.33;44.07;101671.78;4994669;28;20057;-71
2022/04/30 00:45:48;;;;;;;6.25;3.53;;;;;;;20.34;43.96;101676.22;4994560;28;20505;-72
2022/04/30 00:48:16;;;;;;;5.30;3.67;;;;;;;20.33;44.04;101672.63;4994393;28;20053;-72
2022/04/30 00:50:43;;;;;;;5.40;3.28;;;;;;;20.33;44.13;101679.84;4994373;28;20046;-72
2022/04/30 00:53:16;;;;;;;3.78;2.95;;;;;;;20.33;44.29;101674.47;4994683;28;20061;-72
2022/04/30 00:55:45;;;;;;;5.13;3.63;;;;;;;20.33;44.00;101680.72;4993653;28;20391;-72
2022/04/30 00:58:14;;;;;;;5.07;2.90;;;;;;;20.33;44.03;101674.47;4993855;28;20057;-71
2022/04/30 01:00:43;;;;;;;3.50;3.00;;;;;;;20.33;44.02;101679.84;4994336;28;20585;-72
2022/04/30 01:03:30;;;;;;;4.47;2.90;;;;;;;20.33;44.04;101674.47;4992902;28;20061;-71
2022/04/30 01:06:06;;;;;;;3.80;3.00;;;;;;;20.32;44.29;101672.78;4994187;28;20042;-71
2022/04/30 01:08:33;;;;;;;3.35;2.80;;;;;;;20.31;43.97;101663.84;4994484;28;20505;-72
2022/04/30 01:11:03;;;;;;;4.05;3.08;;;;;;;20.32;44.08;101667.38;4993781;28;20046;-72
2022/04/30 01:13:35;;;;;;;5.38;3.25;;;;;;;20.31;43.96;101665.69;4993693;28;20061;-71
2022/04/30 01:16:06;;;;;;;3.90;2.88;;;;;;;20.31;44.12;101671.91;4992838;28;20057;-71
2022/04/30 01:18:35;;;;;;;3.65;3.03;;;;;;;20.31;44.11;101663.00;4993656;28;20046;-71
2022/04/30 01:21:13;;;;;;;5.07;3.60;;;;;;;20.30;44.05;101659.44;4993630;28;20046;-71
2022/04/30 01:23:42;;;;;;;4.00;2.92;;;;;;;20.30;44.07;101656.75;4992505;28;20236;-72
2022/04/30 01:26:10;;;;;;;3.03;2.47;;;;;;;20.30;43.65;101650.53;4993679;28;20057;-72
2022/04/30 01:28:40;;;;;;;4.90;2.78;;;;;;;20.30;43.98;101655.91;4993765;28;20042;-71
2022/04/30 01:37:22;;;;;;;4.05;3.17;;;;;;;20.30;44.03;101647.84;4994126;28;20046;-72
2022/04/30 01:39:35;;;;;;;4.22;3.20;;;;;;;20.30;44.10;101637.94;5004841;28;20049;-71
2022/04/30 01:42:11;;;;;;;5.47;2.95;;;;;;;20.29;43.85;101636.19;4993711;28;20045;-72
2022/04/30 01:44:46;;;;;;;4.50;3.08;;;;;;;20.30;44.10;101639.78;4992453;28;20053;-71
2022/04/30 01:47:18;;;;;;;3.90;2.97;;;;;;;20.27;43.95;101635.47;4993481;28;20054;-72
2022/04/30 01:49:45;;;;;;;4.45;2.72;;;;;;;20.27;43.68;101632.78;4993330;28;20042;-71
2022/04/30 01:52:15;;;;;;;5.07;3.17;;;;;;;20.28;43.96;101628.28;4993584;28;20051;-71
2022/04/30 01:54:43;;;;;;;4.30;3.38;;;;;;;20.27;43.80;101629.25;5008317;28;20046;-71
2022/04/30 01:57:12;;;;;;;4.32;3.00;;;;;;;20.27;43.82;101630.09;4993224;28;20061;-71
2022/04/30 01:59:40;;;;;;;4.82;3.35;;;;;;;20.28;43.75;101630.97;4993546;28;20046;-72
2022/04/30 02:02:07;;;;;;;3.67;2.90;;;;;;;20.27;43.87;101629.25;4992361;28;20053;-72
2022/04/30 02:04:35;;;;;;;5.80;3.40;;;;;;;20.25;43.98;101623.97;4993713;28;20050;-71
2022/04/30 02:07:03;;;;;;;4.20;2.80;;;;;;;20.25;43.99;101627.53;4993416;28;20478;-71
2022/04/30 02:09:32;;;;;;;3.92;2.90;;;;;;;20.27;43.83;101626.56;4993198;28;20087;-71
2022/04/30 02:12:00;;;;;;;4.35;3.30;;;;;;;20.25;43.77;101632.91;4993526;28;20062;-71
2022/04/30 02:14:30;;;;;;;5.35;3.42;;;;;;;20.27;43.70;101637.31;4993395;28;20053;-71
2022/04/30 02:16:59;;;;;;;4.70;3.38;;;;;;;20.25;43.65;101632.91;4993068;28;20049;-71
2022/04/30 02:22:18;;;;;;;5.35;3.22;;;;;;;20.25;43.53;101640.09;5014173;28;20157;-72
2022/04/30 02:24:46;;;;;;;4.00;2.97;;;;;;;20.24;43.80;101633.88;5014509;28;20062;-72
2022/04/30 02:27:14;;;;;;;3.85;3.15;;;;;;;20.23;43.71;101634.84;5014419;28;20077;-72
2022/04/30 02:29:42;;;;;;;5.03;3.17;;;;;;;20.23;43.79;101634.84;5014168;28;20576;-71
2022/04/30 02:32:09;;;;;;;4.00;3.53;;;;;;;20.23;43.78;101637.53;5015262;28;20077;-72
2022/04/30 02:34:36;;;;;;;3.55;2.70;;;;;;;20.24;43.76;101628.50;5014527;28;20062;-71
2022/04/30 02:37:04;;;;;;;4.53;3.28;;;;;;;20.23;43.89;101636.69;5014250;28;20057;-71
2022/04/30 02:39:32;;;;;;;3.58;3.08;;;;;;;20.22;43.59;101632.31;5013488;28;20065;-71
2022/04/30 02:41:59;;;;;;;4.93;3.13;;;;;;;20.23;43.63;101634.00;4997537;28;20046;-71
2022/04/30 02:44:27;;;;;;;4.10;3.60;;;;;;;20.22;43.73;101630.47;5014759;28;20060;-71
2022/04/30 02:46:55;;;;;;;3.80;3.00;;;;;;;20.21;43.85;101627.88;5013954;28;20069;-71
2022/04/30 02:49:22;;;;;;;4.65;2.97;;;;;;;20.22;43.87;101632.31;5014403;28;20049;-71
2022/04/30 02:51:49;;;;;;;4.18;3.28;;;;;;;20.21;43.56;101631.41;5014075;28;20049;-72
2022/04/30 02:54:17;;;;;;;3.45;3.15;;;;;;;20.21;43.89;101626.03;5013880;28;20050;-72
2022/04/30 02:56:44;;;;;;;4.40;3.05;;;;;;;20.22;43.67;101627.78;4997686;28;20050;-71
2022/04/30 03:02:02;;;;;;;4.20;3.00;;;;;;;20.21;43.73;101625.19;4995169;28;20510;-71
2022/04/30 03:04:42;;;;;;;4.38;3.40;;;;;;;20.20;43.74;101615.41;4995329;28;20058;-71
2022/04/30 03:07:11;;;;;;;6.25;3.47;;;;;;;20.20;43.85;101620.78;4996582;28;20054;-71
2022/04/30 03:09:39;;;;;;;4.13;3.05;;;;;;;20.18;43.84;101620.91;4996366;28;20049;-71
2022/04/30 03:12:08;;;;;;;3.67;2.67;;;;;;;20.19;44.16;101617.25;4996145;28;20050;-71
2022/04/30 03:14:36;;;;;;;4.45;3.38;;;;;;;20.18;43.93;101626.28;4996258;28;20042;-71
2022/04/30 03:22:35;;;;;;;4.90;3.00;;;;;;;20.18;43.96;101623.59;4995962;28;20061;-71
2022/04/30 03:25:03;;;;;;;3.55;2.60;;;;;;;20.17;43.95;101616.50;4996192;28;20046;-71
2022/04/30 03:27:32;;;;;;;3.08;2.75;;;;;;;20.19;44.14;101621.78;4995718;28;20053;-71
2022/04/30 03:29:59;;;;;;;4.03;3.25;;;;;;;20.17;43.67;101619.19;4996368;28;20513;-71
2022/04/30 03:32:26;;;;;;;4.70;3.53;;;;;;;20.17;43.76;101616.50;4994693;28;20054;-71
2022/04/30 03:34:54;;;;;;;4.68;3.40;;;;;;;20.16;44.00;101614.78;4995613;28;20053;-71
2022/04/30 03:37:21;;;;;;;3.38;2.97;;;;;;;20.16;43.94;101609.41;4994916;28;20053;-71
2022/04/30 03:39:48;;;;;;;4.43;2.50;;;;;;;20.16;43.75;101606.72;5009889;28;20038;-71
2022/04/30 03:42:16;;;;;;;4.07;2.88;;;;;;;20.15;44.08;101615.78;4994819;28;20402;-71
2022/04/30 03:44:43;;;;;;;3.45;3.05;;;;;;;20.16;44.18;101616.63;4995419;28;20079;-71
2022/04/30 03:47:11;;;;;;;4.15;2.78;;;;;;;20.15;44.06;101618.47;4995746;28;20057;-72
2022/04/30 03:49:39;;;;;;;4.80;3.03;;;;;;;20.15;44.00;101612.22;4995570;28;20053;-72
2022/04/30 03:52:09;;;;;;;4.43;3.10;;;;;;;20.15;43.74;101605.03;4993981;28;20057;-71
2022/04/30 03:54:37;;;;;;;4.63;3.00;;;;;;;20.15;43.86;101602.34;4995613;28;20042;-71
2022/04/30 03:57:04;;;;;;;3.47;2.90;;;;;;;20.15;44.16;101610.41;4995120;28;20046;-71
2022/04/30 03:59:32;;;;;;;4.28;2.85;;;;;;;20.14;44.19;101606.00;4995685;28;20413;-71
2022/04/30 04:02:00;;;;;;;3.92;2.72;;;;;;;20.13;44.23;101606.94;4995282;28;20606;-72
2022/04/30 04:04:29;;;;;;;4.88;2.90;;;;;;;20.15;44.10;101610.41;4995464;28;20043;-72
2022/04/30 04:06:58;;;;;;;3.72;2.78;;;;;;;20.16;44.37;101608.56;4995486;28;20093;-71
2022/04/30 04:09:25;;;;;;;3.55;2.72;;;;;;;20.15;44.35;101601.47;4993858;28;20066;-72
2022/04/30 04:11:53;;;;;;;3.30;2.90;;;;;;;20.15;44.48;101598.78;4995127;28;20046;-71
2022/04/30 04:19:52;;;;;;;4.18;2.83;;;;;;;20.14;44.24;101600.63;4994904;28;20391;-71
2022/04/30 04:22:19;;;;;;;6.97;2.97;;;;;;;20.14;44.19;101594.41;4994566;28;20057;-72
2022/04/30 04:27:32;;;;;;;3.53;2.60;;;;;;;20.13;44.10;101596.19;4995409;28;20061;-72
2022/04/30 04:30:00;;;;;;;3.67;3.08;;;;;;;20.12;43.91;101591.81;4994817;28;20046;-72
2022/04/30 04:32:27;;;;;;;3.53;2.85;;;;;;;20.14;44.06;101594.41;4994767;28;20046;-72
2022/04/30 04:34:55;;;;;;;5.20;2.90;;;;;;;20.11;44.09;101590.09;5010273;28;20046;-71
2022/04/30 04:37:23;;;;;;;6.00;2.95;;;;;;;20.12;44.16;101602.56;4994746;28;20049;-72
2022/04/30 04:39:50;;;;;;;4.78;3.30;;;;;;;20.11;44.17;101594.63;4994694;28;20050;-72
2022/04/30 04:42:19;;;;;;;2.92;2.42;;;;;;;20.12;44.00;101593.63;4993449;28;20075;-71
2022/04/30 04:44:48;;;;;;;4.03;3.28;;;;;;;20.12;44.18;101599.03;4994248;28;20046;-71
2022/04/30 04:47:15;;;;;;;4.75;2.90;;;;;;;20.10;44.05;101593.78;4992894;28;20054;-72
2022/04/30 04:49:43;;;;;;;3.20;2.80;;;;;;;20.10;44.15;101604.53;4994965;28;20042;-72
2022/04/30 04:52:11;;;;;;;4.75;3.15;;;;;;;20.10;44.11;101593.78;4995017;28;20046;-72
2022/04/30 04:54:38;;;;;;;3.83;2.78;;;;;;;20.10;44.00;101601.84;4994379;28;20054;-71
2022/04/30 04:57:06;;;;;;;3.97;2.65;;;;;;;20.10;43.90;101600.97;4976900;28;20042;-72
2022/04/30 04:59:33;;;;;;;4.13;2.88;;;;;;;20.10;44.03;101607.22;4974354;28;20058;-71
2022/04/30 05:02:03;;;;;;;6.90;3.05;;;;;;;20.10;43.87;101603.66;4994025;28;20104;-72
2022/04/30 05:04:32;;;;;;;4.63;2.80;;;;;;;20.10;43.91;101603.66;4994453;28;20406;-71
2022/04/30 05:07:00;;;;;;;5.35;3.13;;;;;;;20.08;43.84;101603.78;4994524;28;20057;-72
2022/04/30 05:09:27;;;;;;;4.00;3.15;;;;;;;20.09;43.99;101600.09;4994265;28;20090;-71
2022/04/30 05:11:55;;;;;;;4.80;3.13;;;;;;;20.10;43.71;101609.06;4994120;28;20057;-71
2022/04/30 05:14:22;;;;;;;4.63;3.10;;;;;;;20.09;43.72;101607.31;4994348;28;20050;-71
2022/04/30 05:16:50;;;;;;;3.53;2.60;;;;;;;20.09;43.92;101607.31;4994117;28;20050;-71
2022/04/30 05:19:17;;;;;;;3.90;3.10;;;;;;;20.07;43.72;101598.53;4993939;28;20382;-71
2022/04/30 05:21:45;;;;;;;5.57;2.78;;;;;;;20.08;43.68;101606.47;4993603;28;20073;-71
2022/04/30 05:24:12;;;;;;;3.47;2.80;;;;;;;20.08;43.89;101602.91;4993930;28;20058;-71
2022/04/30 05:26:39;;;;;;;4.25;2.92;;;;;;;20.07;43.67;101604.75;4994472;28;20051;-72
2022/04/30 05:29:06;;;;;;;3.13;2.47;;;;;;;20.06;43.71;101605.75;4994729;28;20391;-71
2022/04/30 05:31:34;;;;;;;4.28;3.05;;;;;;;20.07;43.77;101606.59;4993405;28;20383;-71
2022/04/30 05:34:02;;;;;;;3.88;3.00;;;;;;;20.08;43.69;101608.28;4993600;28;20520;-72
2022/04/30 05:36:29;;;;;;;3.80;3.10;;;;;;;20.07;43.71;101615.50;4994008;28;20057;-72
2022/04/30 05:38:56;;;;;;;3.15;2.75;;;;;;;20.06;43.71;101608.44;4993434;28;20054;-71
2022/04/30 05:41:24;;;;;;;4.05;3.13;;;;;;;20.07;43.66;101611.97;4991583;28;20042;-72
2022/04/30 05:43:52;;;;;;;4.63;3.08;;;;;;;20.06;43.88;101611.09;4991944;28;20054;-71
2022/04/30 05:46:19;;;;;;;4.82;3.10;;;;;;;20.06;43.79;101607.56;4993244;28;20049;-71
2022/04/30 05:48:47;;;;;;;3.40;2.67;;;;;;;20.06;43.76;101607.56;4992050;28;20046;-71
2022/04/30 05:51:14;;;;;;;4.30;2.83;;;;;;;20.06;43.71;101602.19;4993597;28;20049;-72
2022/04/30 05:53:42;;;;;;;4.18;3.08;;;;;;;20.05;43.84;101601.31;4993319;28;20050;-72
2022/04/30 05:56:09;;;;;;;3.65;3.03;;;;;;;20.06;43.72;101604.88;4991438;28;20411;-72
2022/04/30 05:58:36;;;;;;;4.72;3.05;;;;;;;20.06;43.78;101603.03;4993626;28;20057;-72
2022/04/30 06:01:05;;;;;;;3.20;2.90;;;;;;;20.05;44.02;101595.94;4993157;28;20050;-71
2022/04/30 06:03:33;;;;;;;3.97;2.70;;;;;;;20.06;43.81;101602.19;4993543;28;20494;-71
2022/04/30 06:06:01;;;;;;;5.60;2.90;;;;;;;20.05;43.81;101601.31;4993105;28;20050;-72
2022/04/30 06:08:28;;;;;;;3.65;2.88;;;;;;;20.05;43.88;101601.31;4993264;28;20046;-71
2022/04/30 06:10:56;;;;;;;3.67;2.95;;;;;;;20.05;43.80;101595.09;5008424;28;20050;-72
2022/04/30 06:13:24;;;;;;;3.95;2.85;;;;;;;20.04;43.97;101594.22;4993667;28;20054;-71
2022/04/30 06:15:51;;;;;;;4.78;3.38;;;;;;;20.04;44.14;101588.84;4993009;28;20046;-71
2022/04/30 06:18:20;;;;;;;3.80;2.90;;;;;;;20.05;44.02;101590.56;4993352;28;20470;-71
2022/04/30 06:20:47;;;;;;;3.78;3.00;;;;;;;20.05;44.10;101587.88;4993206;28;20042;-71
2022/04/30 06:23:18;;;;;;;3.05;2.60;;;;;;;20.05;44.03;101576.25;4991607;28;20057;-71
2022/04/30 06:25:46;;;;;;;4.57;3.13;;;;;;;20.06;44.26;101572.63;4993722;28;20054;-71
2022/04/30 06:28:14;;;;;;;5.20;3.50;;;;;;;20.04;43.34;101575.41;4993457;28;20053;-71
2022/04/30 06:30:42;;;;;;;4.38;3.97;;;;;;;19.97;42.77;101571.47;4993055;28;20482;-71
2022/04/30 06:33:09;;;;;;;5.32;4.80;;;;;;;19.91;42.65;101569.28;4993504;28;20050;-72
2022/04/30 06:35:37;;;;;;;5.63;5.03;;;;;;;19.85;42.69;101567.94;4992893;28;20046;-71
2022/04/30 06:38:06;;;;;;;5.28;4.75;;;;;;;19.82;42.76;101559.25;4991563;28;20042;-72
2022/04/30 06:40:33;;;;;;;5.55;4.78;;;;;;;19.81;43.13;101560.19;4993349;28;20061;-71
2022/04/30 06:43:02;;;;;;;5.70;4.97;;;;;;;19.81;42.90;101554.81;4983364;28;20046;-71
2022/04/30 06:45:30;;;;;;;6.90;6.18;;;;;;;19.81;42.64;101557.50;4992906;28;20038;-71
2022/04/30 06:47:57;;;;;;;8.25;7.10;;;;;;;19.79;42.83;101554.09;4992616;28;20057;-71
2022/04/30 06:50:24;;;;;;;7.90;6.75;;;;;;;19.75;42.68;101562.38;4992949;28;20050;-71
2022/04/30 06:58:24;;;;;;;8.52;5.90;;;;;;;19.67;43.19;101562.13;4980686;28;20058;-71
2022/04/30 07:03:29;;;;;;;9.60;5.00;;;;;;;19.75;43.79;101553.47;4993243;28;20050;-71
2022/04/30 07:06:04;;;;;;;;;;;;;;;19.79;43.78;101548.72;4991903;28;20051;-71
2022/04/30 07:08:33;;;;;;;7.70;4.38;;;;;;;19.82;43.82;101546.66;5011648;28;20263;-71
2022/04/30 07:11:02;;;;;;;4.88;4.03;;;;;;;19.86;43.76;101558.88;4995984;28;20042;-71
2022/04/30 07:13:32;;;;;;;10.32;4.18;;;;;;;19.89;43.98;101557.78;5010947;28;20122;-71
2022/04/30 07:16:00;;;;;;;5.40;3.67;;;;;;;19.92;44.26;101565.59;4996400;28;20479;-71
2022/04/30 07:18:27;;;;;;;8.35;4.00;;;;;;;19.93;44.17;101560.13;4996002;28;20046;-71
2022/04/30 07:20:55;;;;;;;5.75;4.00;;;;;;;19.96;44.33;101565.25;4995720;28;20505;-71
2022/04/30 07:23:23;;;;;;;7.43;4.20;;;;;;;19.97;43.96;101563.41;4995920;28;20058;-71
2022/04/30 07:25:50;;;;;;;6.72;3.35;;;;;;;19.99;44.21;101559.66;4995709;28;20110;-71
2022/04/30 07:28:18;;;;;;;4.70;3.65;;;;;;;20.01;44.18;101556.84;4994947;28;20495;-71
2022/04/30 07:30:45;;;;;;;6.03;3.92;;;;;;;20.02;44.27;101558.56;4995661;28;20054;-71
2022/04/30 07:33:12;;;;;;;5.05;3.85;;;;;;;20.05;44.07;101566.38;4994622;28;20053;-71
2022/04/30 07:35:40;;;;;;;5.55;3.50;;;;;;;20.05;44.28;101563.69;4995893;28;20054;-71
2022/04/30 07:38:07;;;;;;;5.80;3.65;;;;;;;20.07;44.04;101574.34;4995592;28;20517;-71
2022/04/30 07:40:38;;;;;;;5.55;3.28;;;;;;;20.08;44.36;101574.19;4994904;28;20050;-71
2022/04/30 07:43:06;;;;;;;6.43;3.22;;;;;;;20.09;44.32;101570.53;4995358;28;20050;-71
2022/04/30 07:45:36;;;;;;;4.63;3.42;;;;;;;20.11;44.13;101573.97;4994009;28;20044;-71
2022/04/30 07:48:04;;;;;;;4.93;3.17;;;;;;;20.11;44.33;101568.59;4995893;28;20398;-71
2022/04/30 07:50:35;;;;;;;5.10;3.10;;;;;;;20.12;44.29;101572.13;4994470;28;20061;-71
2022/04/30 07:53:07;;;;;;;5.72;3.60;;;;;;;20.13;44.16;101566.63;4995406;28;20406;-71
2022/04/30 07:55:35;;;;;;;6.18;3.60;;;;;;;20.15;44.21;101569.22;4995352;28;20061;-71
2022/04/30 07:58:02;;;;;;;5.20;3.53;;;;;;;20.16;44.07;101568.22;4995125;28;20407;-71
2022/04/30 08:00:30;;;;;;;7.38;3.90;;;;;;;20.17;44.23;101569.94;4995449;28;20077;-71
2022/04/30 08:02:59;;;;;;;5.18;3.42;;;;;;;20.17;44.15;101570.78;4995021;28;20054;-71
2022/04/30 08:05:27;;;;;;;4.60;3.22;;;;;;;20.17;44.26;101568.09;4993914;28;20058;-71
2022/04/30 08:07:56;;;;;;;4.32;3.25;;;;;;;20.18;43.92;101564.47;4995332;28;20505;-71
2022/04/30 08:10:24;;;;;;;5.75;3.53;;;;;;;20.18;43.94;101572.53;5010061;28;20490;-71
2022/04/30 08:12:56;;;;;;;4.88;3.03;;;;;;;20.20;44.03;101573.25;4995279;28;20038;-71
2022/04/30 08:15:24;;;;;;;4.97;2.73;;;;;;;20.21;44.05;101564.19;4994792;28;20042;-71
2022/04/30 08:17:52;;;;;;;5.53;3.75;;;;;;;20.22;44.05;101568.63;4994365;28;20046;-71
2022/04/30 08:20:20;;;;;;;3.83;2.97;;;;;;;20.22;44.04;101578.53;4993314;28;20050;-71
2022/04/30 08:22:48;;;;;;;3.88;3.20;;;;;;;20.22;44.20;101571.31;4994601;28;20062;-71
2022/04/30 08:25:15;;;;;;;4.97;3.25;;;;;;;20.23;44.28;101573.00;4993569;28;20621;-71
2022/04/30 08:27:43;;;;;;;4.20;3.13;;;;;;;20.23;44.10;101569.47;4994799;28;20046;-71
2022/04/30 08:30:11;;;;;;;4.43;2.95;;;;;;;20.23;44.14;101577.53;4994542;28;20046;-71
2022/04/30 08:32:40;;;;;;;4.57;3.08;;;;;;;20.24;44.17;101573.88;5009554;28;20046;-71
2022/04/30 08:35:07;;;;;;;5.32;3.40;;;;;;;20.25;44.21;101573.78;4994380;28;20046;-71
2022/04/30 08:37:55;;;;;;;4.15;3.28;;;;;;;20.25;43.97;101578.25;4994424;28;20422;-71
2022/04/30 08:40:23;;;;;;;5.38;3.30;;;;;;;20.25;44.10;101571.09;4994771;28;20046;-71
2022/04/30 08:42:50;;;;;;;4.80;2.88;;;;;;;20.28;44.05;101569.13;4994233;28;20069;-71
2022/04/30 08:45:22;;;;;;;5.13;2.88;;;;;;;20.27;44.11;101567.41;4993135;28;20054;-71
2022/04/30 08:47:50;;;;;;;3.72;3.00;;;;;;;20.29;44.19;101568.13;4994118;28;20057;-71
2022/04/30 08:50:18;;;;;;;4.57;3.25;;;;;;;20.28;44.17;101574.50;4994188;28;20090;-71
2022/04/30 08:52:46;;;;;;;5.20;3.10;;;;;;;20.28;44.23;101569.97;4994044;28;20054;-71
2022/04/30 08:55:13;;;;;;;4.78;2.95;;;;;;;20.29;44.22;101568.13;4994028;28;20141;-71
2022/04/30 08:57:40;;;;;;;4.45;3.30;;;;;;;20.29;44.26;101566.28;4990576;28;20046;-71
2022/04/30 09:00:08;;;;;;;4.38;2.83;;;;;;;20.29;43.87;101560.06;4994100;28;20053;-70
2022/04/30 09:02:36;;;;;;;4.57;2.72;;;;;;;20.30;44.25;101559.09;4993753;28;20409;-71
2022/04/30 09:05:14;;;;;;;3.47;2.58;;;;;;;20.30;44.18;101561.78;4993122;28;20050;-71
2022/04/30 09:07:41;;;;;;;3.72;2.60;;;;;;;20.30;44.43;101556.41;4993988;28;20051;-71
2022/04/30 09:10:09;;;;;;;4.50;2.90;;;;;;;20.31;44.37;101552.75;4993931;28;20046;-70
2022/04/30 09:12:41;;;;;;;4.07;3.05;;;;;;;20.31;44.23;101550.06;4992889;28;20061;-71
2022/04/30 09:15:15;;;;;;;3.22;2.88;;;;;;;20.31;44.01;101545.53;4993838;28;20054;-71
2022/04/30 09:17:44;;;;;;;4.20;3.03;;;;;;;20.31;44.24;101540.16;4993662;28;20054;-71
2022/04/30 09:20:21;;;;;;;5.03;3.03;;;;;;;20.31;44.04;101542.00;4993721;28;20406;-71
2022/04/30 09:22:48;;;;;;;4.78;3.22;;;;;;;20.31;43.99;101540.16;4993841;28;20058;-71
2022/04/30 09:25:16;;;;;;;3.30;2.70;;;;;;;20.32;44.06;101543.69;4993965;28;20058;-71
2022/04/30 09:28:03;;;;;;;5.60;3.35;;;;;;;20.32;43.90;101538.31;4993717;28;20383;-71
2022/04/30 09:30:32;;;;;;;3.35;2.80;;;;;;;20.33;43.74;101540.88;4992593;28;20509;-71
2022/04/30 09:33:04;;;;;;;4.55;3.28;;;;;;;20.32;43.83;101530.25;4993983;28;20057;-71
2022/04/30 09:38:20;;;;;;;3.97;2.95;;;;;;;20.32;43.83;101523.03;4993551;28;20069;-71
2022/04/30 09:40:58;;;;;;;5.78;3.20;;;;;;;20.32;43.87;101517.66;4992338;28;20051;-71
2022/04/30 09:43:30;;;;;;;4.10;2.83;;;;;;;20.34;43.69;101514.88;5005636;28;20099;-71
2022/04/30 09:46:07;;;;;;;3.40;2.97;;;;;;;20.32;43.80;101511.44;4986591;28;20053;-71
2022/04/30 09:54:08;;;;;;;3.20;2.42;;;;;;;20.33;43.45;101505.06;4994899;28;20133;-70
2022/04/30 09:56:40;;;;;;;4.00;2.70;;;;;;;20.32;43.91;101504.22;4993324;28;20053;-71
2022/04/30 09:59:10;;;;;;;3.43;3.13;;;;;;;20.34;43.94;101498.72;4993500;28;20045;-71
2022/04/30 10:01:43;;;;;;;3.50;2.60;;;;;;;20.34;44.03;101504.09;4993852;28;20284;-71
2022/04/30 10:04:13;;;;;;;3.67;2.70;;;;;;;20.34;44.05;101498.72;4993427;28;20051;-71
2022/04/30 10:06:42;;;;;;;4.82;2.80;;;;;;;20.35;44.11;101497.75;4993655;28;20054;-71
2022/04/30 10:09:26;;;;;;;3.38;2.50;;;;;;;20.36;43.95;101496.75;4993147;28;20054;-70
2022/04/30 10:12:31;;;;;;;3.67;2.58;;;;;;;20.35;43.78;101498.59;4993179;28;20065;-70
2022/04/30 10:15:09;;;;;;;3.45;2.67;;;;;;;20.35;43.75;101489.69;4991881;28;20046;-71
2022/04/30 10:17:41;;;;;;;3.15;2.50;;;;;;;20.35;43.83;101493.22;4993487;28;20050;-71
2022/04/30 10:20:18;;;;;;;3.65;2.75;;;;;;;20.36;43.78;101483.31;4993122;28;20501;-71
2022/04/30 10:22:54;;;;;;;4.63;2.75;;;;;;;20.36;43.56;101481.47;4991427;28;20055;-71
2022/04/30 10:25:42;;;;;;;3.00;2.47;;;;;;;20.35;43.18;101473.53;4992858;28;20544;-71
2022/04/30 10:28:19;;;;;;;3.58;2.70;;;;;;;20.36;43.16;101484.16;4991717;28;20057;-71
2022/04/30 10:30:57;;;;;;;4.05;2.88;;;;;;;20.36;43.21;101480.63;4993379;28;20081;-71
2022/04/30 10:33:25;;;;;;;3.53;2.78;;;;;;;20.35;43.41;101469.00;4993285;28;20486;-71
2022/04/30 10:36:09;;;;;;;4.05;2.85;;;;;;;20.36;43.61;101476.09;4993304;28;20494;-71
2022/04/30 10:38:37;;;;;;;4.88;2.72;;;;;;;20.37;43.76;101472.41;4993326;28;20057;-71
2022/04/30 10:41:11;;;;;;;3.90;3.00;;;;;;;20.36;43.74;101470.72;4992741;28;20049;-71
2022/04/30 10:43:40;;;;;;;3.22;2.42;;;;;;;20.36;43.65;101465.34;4996953;28;20042;-70
2022/04/30 10:46:13;;;;;;;3.25;2.50;;;;;;;20.36;43.61;101454.59;4996269;28;20057;-71
2022/04/30 10:48:41;;;;;;;5.28;2.75;;;;;;;20.38;43.64;101462.56;4995142;28;20054;-71
2022/04/30 10:51:14;;;;;;;3.40;2.58;;;;;;;20.38;43.50;101451.78;4996785;28;20486;-70
2022/04/30 10:53:43;;;;;;;4.30;2.97;;;;;;;20.38;43.12;101446.41;4996442;28;20049;-71
2022/04/30 10:56:11;;;;;;;3.17;2.70;;;;;;;20.37;43.44;101442.00;4996313;28;20054;-71
2022/04/30 10:58:41;;;;;;;4.05;2.90;;;;;;;20.37;43.41;101437.47;4995460;28;20101;-70
2022/04/30 11:01:13;;;;;;;3.13;2.42;;;;;;;20.38;43.41;101441.88;4996632;28;20406;-71
2022/04/30 11:03:45;;;;;;;2.95;2.50;;;;;;;20.39;43.34;101442.75;4996199;28;20046;-71
2022/04/30 11:06:21;;;;;;;3.00;2.70;;;;;;;20.39;43.31;101440.06;4996532;28;20054;-71
2022/04/30 11:09:08;;;;;;;3.60;2.60;;;;;;;20.38;43.55;101433.81;4996087;28;20069;-71
2022/04/30 11:11:36;;;;;;;3.72;2.50;;;;;;;20.38;43.16;101425.75;4996123;28;20402;-71
2022/04/30 11:14:07;;;;;;;3.95;2.72;;;;;;;20.38;43.20;101425.75;4996091;28;20403;-71
2022/04/30 11:16:36;;;;;;;3.40;2.33;;;;;;;20.38;43.18;101422.22;4996160;28;20057;-70
2022/04/30 11:19:11;;;;;;;3.00;2.42;;;;;;;20.38;43.31;101417.69;4996447;28;20053;-71
2022/04/30 11:21:41;;;;;;;4.68;2.90;;;;;;;20.38;42.91;101414.16;4995762;28;20050;-71
2022/04/30 11:24:10;;;;;;;3.70;2.50;;;;;;;20.38;43.25;101406.94;4995545;28;20541;-70
2022/04/30 11:26:43;;;;;;;4.43;2.65;;;;;;;20.38;43.01;101415.00;4996247;28;20062;-71
2022/04/30 11:29:12;;;;;;;2.70;2.40;;;;;;;20.39;43.37;101405.09;4995666;28;20043;-71
2022/04/30 11:31:42;;;;;;;3.38;2.70;;;;;;;20.38;43.06;101412.31;4996013;28;20418;-71
2022/04/30 11:34:17;;;;;;;3.38;2.45;;;;;;;20.38;42.94;101396.16;4994735;28;20042;-71
2022/04/30 11:36:47;;;;;;;3.10;2.40;;;;;;;20.39;42.83;101388.94;4995659;28;20454;-71
2022/04/30 11:39:16;;;;;;;3.97;2.53;;;;;;;20.38;42.79;101393.47;4995770;28;20051;-71
2022/04/30 11:41:53;;;;;;;3.80;2.58;;;;;;;20.38;42.42;101395.31;4992584;28;20424;-71
2022/04/30 11:44:23;;;;;;;4.10;2.83;;;;;;;20.39;42.59;101402.41;4975518;28;20074;-71
2022/04/30 11:46:52;;;;;;;4.47;2.88;;;;;;;20.40;42.90;101390.66;4975970;28;20062;-71
2022/04/30 11:49:21;;;;;;;3.47;2.60;;;;;;;20.39;43.21;101387.13;4993327;28;20053;-71
2022/04/30 11:52:07;;;;;;;3.17;2.30;;;;;;;20.39;43.30;101386.25;4995585;28;20046;-71
2022/04/30 11:54:39;;;;;;;7.80;2.60;;;;;;;20.40;43.33;101385.28;4994293;28;20038;-71
2022/04/30 11:57:08;;;;;;;3.17;2.67;;;;;;;20.40;43.58;101379.91;4995296;28;20046;-71
2022/04/30 11:59:38;;;;;;;3.80;2.70;;;;;;;20.39;42.88;101372.81;4994085;28;20057;-71
2022/04/30 12:02:10;;;;;;;3.60;2.50;;;;;;;20.39;42.99;101376.34;4995822;28;20054;-71
2022/04/30 12:04:42;;;;;;;3.85;2.90;;;;;;;20.39;42.90;101375.50;4993970;28;20520;-71
2022/04/30 12:07:12;;;;;;;3.22;2.35;;;;;;;20.40;42.92;101370.00;4994927;28;20050;-71
2022/04/30 12:09:47;;;;;;;3.92;2.85;;;;;;;20.40;43.03;101366.44;4995322;28;20417;-71
2022/04/30 12:12:22;;;;;;;3.60;2.60;;;;;;;20.40;43.12;101361.06;4994920;28;20046;-71
2022/04/30 12:14:52;;;;;;;3.85;2.33;;;;;;;20.39;43.25;101357.53;4993619;28;20069;-71
2022/04/30 12:17:30;;;;;;;3.90;2.65;;;;;;;20.40;42.90;101358.38;4994886;28;20406;-70